createdAt,value
2022-11-07T00:00:22.408Z,59.80
2022-11-07T00:05:16.337Z,59.50
2022-11-07T00:10:10.105Z,59.40
2022-11-07T00:12:36.722Z,59.40
2022-11-07T00:15:05.221Z,59.30
2022-11-07T00:17:32.081Z,59.20
2022-11-07T00:19:58.728Z,59.20
2022-11-07T00:22:25.541Z,59.40
2022-11-07T00:24:52.206Z,59.30
2022-11-07T00:27:19.060Z,59.20
2022-11-07T00:29:45.980Z,59.40
2022-11-07T00:32:12.700Z,59.30
2022-11-07T00:34:39.278Z,59.30
2022-11-07T00:37:05.982Z,59.40
2022-11-07T00:39:32.632Z,59.20
2022-11-07T00:41:59.238Z,59.50
2022-11-07T00:44:26.005Z,59.40
2022-11-07T00:46:52.597Z,59.60
2022-11-07T00:51:46.317Z,59.70
2022-11-07T00:56:41.130Z,59.80
2022-11-07T00:59:08.290Z,59.60
2022-11-07T01:01:35.460Z,59.60
2022-11-07T01:04:20.917Z,59.70
2022-11-07T01:06:47.724Z,59.90
2022-11-07T01:14:10.242Z,60.00
2022-11-07T01:16:38.720Z,60.00
2022-11-07T01:19:06.405Z,60.10
2022-11-07T01:21:33.174Z,58.70
2022-11-07T01:28:58.456Z,59.80
2022-11-07T01:31:25.074Z,60.00
2022-11-07T01:33:51.823Z,59.80
2022-11-07T01:36:18.835Z,60.00
2022-11-07T01:38:48.406Z,59.90
2022-11-07T01:41:24.019Z,59.90
2022-11-07T01:43:54.430Z,60.00
2022-11-07T01:46:22.652Z,60.00
2022-11-07T01:49:09.629Z,57.40
2022-11-07T01:51:43.706Z,59.80
2022-11-07T01:54:13.309Z,59.80
2022-11-07T01:56:41.527Z,59.90
2022-11-07T01:59:08.854Z,58.60
2022-11-07T02:01:35.739Z,57.80
2022-11-07T02:04:02.613Z,59.80
2022-11-07T02:11:23.855Z,59.70
2022-11-07T02:13:50.525Z,58.40
2022-11-07T02:16:17.229Z,59.60
2022-11-07T02:18:45.189Z,59.80
2022-11-07T02:21:18.559Z,59.70
2022-11-07T02:23:53.744Z,59.80
2022-11-07T02:26:22.013Z,59.80
2022-11-07T02:28:49.151Z,59.70
2022-11-07T02:31:15.880Z,59.80
2022-11-07T02:33:42.506Z,59.80
2022-11-07T02:36:12.513Z,59.90
2022-11-07T02:41:16.927Z,59.50
2022-11-07T02:43:46.064Z,59.40
2022-11-07T02:46:14.427Z,59.40
2022-11-07T02:48:43.172Z,58.70
2022-11-07T02:51:09.891Z,59.50
2022-11-07T02:53:36.647Z,59.10
2022-11-07T02:56:04.717Z,59.20
2022-11-07T02:58:31.699Z,59.10
2022-11-07T03:01:02.954Z,59.20
2022-11-07T03:03:30.458Z,59.20
2022-11-07T03:05:57.213Z,59.30
2022-11-07T03:08:23.837Z,59.30
2022-11-07T03:10:50.506Z,59.30
2022-11-07T03:13:17.529Z,59.30
2022-11-07T03:15:44.406Z,59.30
2022-11-07T03:18:11.048Z,59.20
2022-11-07T03:20:37.678Z,59.30
2022-11-07T03:23:04.438Z,59.40
2022-11-07T03:25:31.150Z,59.30
2022-11-07T03:27:57.798Z,59.30
2022-11-07T03:30:25.500Z,59.40
2022-11-07T03:32:53.070Z,59.10
2022-11-07T03:35:19.922Z,59.20
2022-11-07T03:37:46.913Z,59.30
2022-11-07T03:42:42.101Z,59.30
2022-11-07T03:45:09.353Z,59.40
2022-11-07T03:47:36.707Z,58.50
2022-11-07T03:50:03.884Z,59.40
2022-11-07T03:52:30.518Z,59.30
2022-11-07T03:54:57.172Z,59.20
2022-11-07T03:57:23.890Z,59.30
2022-11-07T03:59:50.606Z,59.40
2022-11-07T04:02:17.724Z,59.30
2022-11-07T04:04:44.519Z,59.60
2022-11-07T04:07:11.177Z,59.50
2022-11-07T04:12:23.575Z,59.40
2022-11-07T04:15:08.832Z,59.50
2022-11-07T04:17:35.499Z,59.40
2022-11-07T04:20:02.315Z,59.40
2022-11-07T04:24:56.138Z,59.60
2022-11-07T04:27:41.457Z,59.60
2022-11-07T04:30:29.862Z,59.40
2022-11-07T04:32:57.693Z,59.60
2022-11-07T04:35:26.911Z,59.40
2022-11-07T04:37:53.922Z,59.40
2022-11-07T04:40:20.715Z,59.40
2022-11-07T04:42:48.072Z,59.50
2022-11-07T04:45:15.504Z,59.50
2022-11-07T04:47:42.142Z,59.40
2022-11-07T04:50:10.567Z,59.40
2022-11-07T04:52:37.291Z,59.40
2022-11-07T04:55:04.278Z,59.50
2022-11-07T04:57:30.960Z,59.50
2022-11-07T04:59:57.633Z,59.50
2022-11-07T05:02:25.206Z,59.60
2022-11-07T05:04:52.503Z,59.50
2022-11-07T05:07:19.536Z,59.30
2022-11-07T05:09:46.175Z,59.60
2022-11-07T05:12:12.776Z,59.80
2022-11-07T05:14:40.536Z,59.80
2022-11-07T05:17:07.568Z,59.80
2022-11-07T05:19:34.187Z,59.80
2022-11-07T05:22:19.429Z,59.80
2022-11-07T05:24:46.201Z,59.80
2022-11-07T05:29:39.865Z,59.30
2022-11-07T05:32:06.501Z,59.80
2022-11-07T05:34:33.075Z,59.90
2022-11-07T05:36:59.774Z,58.10
2022-11-07T05:39:26.479Z,60.00
2022-11-07T05:41:53.147Z,60.00
2022-11-07T05:44:19.793Z,60.00
2022-11-07T05:46:46.438Z,60.10
2022-11-07T05:49:13.101Z,58.40
2022-11-07T05:51:41.308Z,57.50
2022-11-07T05:56:37.262Z,60.10
2022-11-07T05:59:04.582Z,60.20
2022-11-07T06:01:31.375Z,60.50
2022-11-07T06:03:58.123Z,60.50
2022-11-07T06:06:24.790Z,60.40
2022-11-07T06:08:51.360Z,60.50
2022-11-07T06:13:45.095Z,60.20
2022-11-07T06:16:12.731Z,57.90
2022-11-07T06:18:41.819Z,59.90
2022-11-07T06:21:08.904Z,59.90
2022-11-07T06:23:35.681Z,59.80
2022-11-07T06:26:02.361Z,59.80
2022-11-07T06:30:59.213Z,59.80
2022-11-07T06:33:25.852Z,59.80
2022-11-07T06:35:52.531Z,59.90
2022-11-07T06:38:19.155Z,59.70
2022-11-07T06:43:16.283Z,59.50
2022-11-07T06:48:10.965Z,58.60
2022-11-07T06:50:37.990Z,59.80
2022-11-07T06:53:07.257Z,59.50
2022-11-07T06:55:34.621Z,59.60
2022-11-07T06:58:01.766Z,58.90
2022-11-07T07:00:29.235Z,59.40
2022-11-07T07:02:58.778Z,59.60
2022-11-07T07:05:26.471Z,59.50
2022-11-07T07:07:54.224Z,59.00
2022-11-07T07:10:20.916Z,59.10
2022-11-07T07:12:47.630Z,58.90
2022-11-07T07:15:14.248Z,59.10
2022-11-07T07:17:40.933Z,59.50
2022-11-07T07:20:07.920Z,59.90
2022-11-07T07:22:35.548Z,60.20
2022-11-07T07:25:03.355Z,60.40
2022-11-07T07:29:57.079Z,60.50
2022-11-07T07:34:54.102Z,60.60
2022-11-07T07:37:20.774Z,60.80
2022-11-07T07:39:47.714Z,60.60
2022-11-07T07:42:14.671Z,60.60
2022-11-07T07:44:44.559Z,60.60
2022-11-07T07:52:06.042Z,60.50
2022-11-07T07:54:33.747Z,60.90
2022-11-07T07:57:01.364Z,60.60
2022-11-07T07:59:28.119Z,60.60
2022-11-07T08:04:24.129Z,60.10
2022-11-07T08:06:50.792Z,60.40
2022-11-07T08:11:44.574Z,60.50
2022-11-07T08:14:11.703Z,60.40
2022-11-07T08:19:05.578Z,60.30
2022-11-07T08:21:33.523Z,59.90
2022-11-07T08:24:00.887Z,59.80
2022-11-07T08:26:27.620Z,59.70
2022-11-07T08:28:54.615Z,59.80
2022-11-07T08:31:21.274Z,59.70
2022-11-07T08:33:47.988Z,59.70
2022-11-07T08:36:14.727Z,59.60
2022-11-07T08:38:41.361Z,59.70
2022-11-07T08:41:08.090Z,59.80
2022-11-07T08:43:34.741Z,59.70
2022-11-07T08:46:01.456Z,59.50
2022-11-07T08:48:28.120Z,59.60
2022-11-07T08:50:55.928Z,59.60
2022-11-07T08:53:23.485Z,59.50
2022-11-07T08:55:50.429Z,59.50
2022-11-07T08:58:17.262Z,59.50
2022-11-07T09:00:43.991Z,59.70
2022-11-07T09:05:58.649Z,59.50
2022-11-07T09:08:25.567Z,59.30
2022-11-07T09:10:52.326Z,59.30
2022-11-07T09:13:20.617Z,59.40
2022-11-07T09:15:50.899Z,59.40
2022-11-07T09:18:18.665Z,59.40
2022-11-07T09:20:45.524Z,59.40
2022-11-07T09:23:12.197Z,59.40
2022-11-07T09:25:38.882Z,59.30
2022-11-07T09:28:05.575Z,59.40
2022-11-07T09:30:32.233Z,59.50
2022-11-07T09:32:59.289Z,59.40
2022-11-07T09:35:26.240Z,59.30
2022-11-07T09:37:52.805Z,59.50
2022-11-07T09:40:19.432Z,59.30
2022-11-07T09:42:51.931Z,59.30
2022-11-07T09:45:18.735Z,59.60
2022-11-07T09:47:48.650Z,59.40
2022-11-07T09:50:18.875Z,59.40
2022-11-07T09:52:58.518Z,59.40
2022-11-07T09:55:34.050Z,59.30
2022-11-07T09:58:02.208Z,59.20
2022-11-07T10:00:31.756Z,59.10
2022-11-07T10:02:59.525Z,59.20
2022-11-07T10:05:43.087Z,58.90
2022-11-07T10:08:13.879Z,59.20
2022-11-07T10:10:46.710Z,59.30
2022-11-07T10:13:19.598Z,59.20
2022-11-07T10:15:58.490Z,59.20
2022-11-07T10:18:35.123Z,59.40
2022-11-07T10:21:36.342Z,59.20
2022-11-07T10:24:12.206Z,59.30
2022-11-07T10:26:42.248Z,59.30
2022-11-07T10:29:21.248Z,59.30
2022-11-07T10:31:51.576Z,59.30
2022-11-07T10:34:22.417Z,59.40
2022-11-07T10:36:49.190Z,59.40
2022-11-07T10:39:17.135Z,59.20
2022-11-07T10:41:47.258Z,59.20
2022-11-07T10:44:18.127Z,59.30
2022-11-07T10:46:47.802Z,59.30
2022-11-07T10:49:22.113Z,59.00
2022-11-07T10:51:49.013Z,59.30
2022-11-07T10:54:43.285Z,59.30
2022-11-07T10:57:11.892Z,59.30
2022-11-07T10:59:46.282Z,59.30
2022-11-07T11:02:21.801Z,59.40
2022-11-07T11:04:54.066Z,59.40
2022-11-07T11:07:27.133Z,59.40
2022-11-07T11:09:56.737Z,59.50
2022-11-07T11:12:27.613Z,59.50
2022-11-07T11:15:02.605Z,59.30
2022-11-07T11:17:30.298Z,59.40
2022-11-07T11:19:57.217Z,59.50
2022-11-07T11:22:24.845Z,59.50
2022-11-07T11:24:58.691Z,59.50
2022-11-07T11:27:29.498Z,59.40
2022-11-07T11:29:58.924Z,59.50
2022-11-07T11:32:30.708Z,59.50
2022-11-07T11:35:04.540Z,59.60
2022-11-07T11:37:33.613Z,59.60
2022-11-07T11:40:02.209Z,59.60
2022-11-07T11:42:45.120Z,59.40
2022-11-07T11:45:29.202Z,59.50
2022-11-07T11:48:15.611Z,59.70
2022-11-07T11:50:48.891Z,59.70
2022-11-07T11:53:19.313Z,59.70
2022-11-07T11:55:57.900Z,59.50
2022-11-07T11:58:43.629Z,59.60
2022-11-07T12:01:13.900Z,59.60
2022-11-07T12:03:56.804Z,59.70
2022-11-07T12:06:36.362Z,59.70
2022-11-07T12:09:17.097Z,59.80
2022-11-07T12:11:57.034Z,59.70
2022-11-07T12:14:37.020Z,59.50
2022-11-07T12:17:08.720Z,59.40
2022-11-07T12:19:42.509Z,59.50
2022-11-07T12:22:28.077Z,59.50
2022-11-07T12:25:03.941Z,59.50
2022-11-07T12:27:49.254Z,59.50
2022-11-07T12:30:16.005Z,59.40
2022-11-07T12:32:47.975Z,59.50
2022-11-07T12:35:14.538Z,59.40
2022-11-07T12:37:55.759Z,59.60
2022-11-07T12:40:37.117Z,59.60
2022-11-07T12:43:24.329Z,59.70
2022-11-07T12:46:08.565Z,59.80
2022-11-07T12:48:54.023Z,59.80
2022-11-07T12:51:39.258Z,59.70
2022-11-07T12:54:26.148Z,59.70
2022-11-07T12:56:54.035Z,59.80
2022-11-07T12:59:25.770Z,59.90
2022-11-07T13:02:07.150Z,59.80
2022-11-07T13:04:41.329Z,59.80
2022-11-07T13:07:28.509Z,59.80
2022-11-07T13:10:26.529Z,59.90
2022-11-07T13:12:58.823Z,59.80
2022-11-07T13:15:25.518Z,59.80
2022-11-07T13:17:52.327Z,59.90
2022-11-07T13:20:22.903Z,59.80
2022-11-07T13:25:17.895Z,60.00
2022-11-07T13:28:05.696Z,60.00
2022-11-07T13:30:35.637Z,60.10
2022-11-07T13:33:04.110Z,60.00
2022-11-07T13:35:31.946Z,59.90
2022-11-07T13:38:07.298Z,60.00
2022-11-07T13:43:06.365Z,60.10
2022-11-07T13:45:41.827Z,60.20
2022-11-07T13:48:21.377Z,60.40
2022-11-07T13:51:06.608Z,60.60
2022-11-07T13:53:37.986Z,60.60
2022-11-07T13:56:14.956Z,60.40
2022-11-07T13:58:41.716Z,60.30
2022-11-07T14:01:10.205Z,60.60
2022-11-07T14:03:37.026Z,60.40
2022-11-07T14:06:04.143Z,60.40
2022-11-07T14:08:37.285Z,60.30
2022-11-07T14:11:04.706Z,60.50
2022-11-07T14:16:02.437Z,60.30
2022-11-07T14:18:31.931Z,60.40
2022-11-07T14:23:28.323Z,60.30
2022-11-07T14:25:58.564Z,60.30
2022-11-07T14:30:52.903Z,59.10
2022-11-07T14:33:21.079Z,60.40
2022-11-07T14:35:48.534Z,60.30
2022-11-07T14:38:17.643Z,60.00
2022-11-07T14:40:46.577Z,60.10
2022-11-07T14:46:10.646Z,60.10
2022-11-07T14:48:28.131Z,60.10
2022-11-07T14:53:22.028Z,60.10
2022-11-07T14:55:51.793Z,60.10
2022-11-07T14:58:20.967Z,58.80
2022-11-07T15:00:56.815Z,59.80
2022-11-07T15:03:30.703Z,59.90
2022-11-07T15:05:57.772Z,60.20
2022-11-07T15:08:26.451Z,60.20
2022-11-07T15:11:00.055Z,60.20
2022-11-07T15:13:27.092Z,60.10
2022-11-07T15:16:03.063Z,60.30
2022-11-07T15:18:30.019Z,60.10
2022-11-07T15:20:58.295Z,60.20
2022-11-07T15:23:24.954Z,60.10
2022-11-07T15:25:53.014Z,60.00
2022-11-07T15:28:27.365Z,60.00
2022-11-07T15:30:55.497Z,60.20
2022-11-07T15:33:23.056Z,60.30
2022-11-07T15:38:18.860Z,60.20
2022-11-07T15:40:46.110Z,60.30
2022-11-07T15:43:12.771Z,59.90
2022-11-07T15:45:39.652Z,60.30
2022-11-07T15:48:07.336Z,60.20
2022-11-07T15:50:39.202Z,60.10
2022-11-07T15:53:06.278Z,60.10
2022-11-07T15:55:33.043Z,60.10
2022-11-07T16:00:26.947Z,60.10
2022-11-07T16:02:54.028Z,60.10
2022-11-07T16:05:20.785Z,60.10
2022-11-07T16:07:47.521Z,58.90
2022-11-07T16:10:19.490Z,60.40
2022-11-07T16:12:46.279Z,60.20
2022-11-07T16:15:13.930Z,60.30
2022-11-07T16:27:28.975Z,60.00
2022-11-07T16:29:55.669Z,60.10
2022-11-07T16:32:22.387Z,60.00
2022-11-07T16:34:49.012Z,60.10
2022-11-07T16:37:15.698Z,59.90
2022-11-07T16:39:42.362Z,59.00
2022-11-07T16:42:12.524Z,60.30
2022-11-07T16:44:39.235Z,60.20
2022-11-07T16:47:08.613Z,60.50
2022-11-07T16:49:35.607Z,59.90
2022-11-07T16:52:03.359Z,60.20
2022-11-07T16:54:30.958Z,60.30
2022-11-07T16:59:24.850Z,60.70
2022-11-07T17:01:52.133Z,60.90
2022-11-07T17:04:18.967Z,62.60
2022-11-07T17:11:47.201Z,60.50
2022-11-07T17:14:13.873Z,59.70
2022-11-07T17:16:42.255Z,59.40
2022-11-07T17:19:10.368Z,59.30
2022-11-07T17:21:37.713Z,58.90
2022-11-07T17:24:04.579Z,58.30
2022-11-07T17:26:34.315Z,58.60
2022-11-07T17:29:01.412Z,58.90
2022-11-07T17:31:28.015Z,58.70
2022-11-07T17:33:54.690Z,59.30
2022-11-07T17:36:23.618Z,59.50
2022-11-07T17:38:51.220Z,59.60
2022-11-07T17:41:17.839Z,59.50
2022-11-07T17:43:44.911Z,59.50
2022-11-07T17:46:20.686Z,59.40
2022-11-07T17:48:50.491Z,59.60
2022-11-07T17:51:17.203Z,59.70
2022-11-07T17:53:43.824Z,59.50
2022-11-07T17:56:18.240Z,59.50
2022-11-07T17:58:45.663Z,59.40
2022-11-07T18:01:13.944Z,59.60
2022-11-07T18:03:40.648Z,59.50
2022-11-07T18:06:07.361Z,59.60
2022-11-07T18:08:51.185Z,59.40
2022-11-07T18:11:20.023Z,59.70
2022-11-07T18:13:46.641Z,59.60
2022-11-07T18:16:19.737Z,60.00
2022-11-07T18:18:46.730Z,60.30
2022-11-07T18:21:13.451Z,60.50
2022-11-07T18:23:41.621Z,60.80
2022-11-07T18:26:09.913Z,61.10
2022-11-07T18:28:37.453Z,61.40
2022-11-07T18:31:08.331Z,61.80
2022-11-07T18:33:35.213Z,62.30
2022-11-07T18:40:59.149Z,61.30
2022-11-07T18:45:54.993Z,59.60
2022-11-07T18:50:49.053Z,61.00
2022-11-07T19:32:48.345Z,61.10
2022-11-07T19:37:43.906Z,60.90
2022-11-07T19:42:38.798Z,59.70
2022-11-07T19:47:33.662Z,60.90
2022-11-07T19:54:55.094Z,60.80
2022-11-07T19:59:49.000Z,61.00
2022-11-07T20:05:00.263Z,60.60
2022-11-07T20:39:23.356Z,60.50
2022-11-07T20:44:17.027Z,59.10
2022-11-07T20:46:44.754Z,58.20
2022-11-07T20:49:12.967Z,60.00
2022-11-07T20:51:40.080Z,60.30
2022-11-07T20:54:07.058Z,60.40
2022-11-07T20:56:33.841Z,59.80
2022-11-07T20:59:00.477Z,60.30
2022-11-07T21:01:32.755Z,60.20
2022-11-07T21:21:18.467Z,60.10
2022-11-07T21:26:14.431Z,60.40
2022-11-07T21:33:35.777Z,60.30
2022-11-07T21:38:29.798Z,58.80
2022-11-07T21:45:50.518Z,60.40
2022-11-07T21:48:18.403Z,60.30
2022-11-07T21:55:40.734Z,60.30
2022-11-07T21:58:07.373Z,60.40
2022-11-07T22:00:36.581Z,60.20
2022-11-07T22:03:04.261Z,60.20
2022-11-07T22:07:58.045Z,60.00
2022-11-07T22:10:24.938Z,60.10
2022-11-07T22:12:52.747Z,59.80
2022-11-07T22:17:46.819Z,59.90
2022-11-07T22:20:13.749Z,60.00
2022-11-07T22:22:40.500Z,59.90
2022-11-07T22:25:08.194Z,60.60
2022-11-07T22:27:37.646Z,60.30
2022-11-07T22:30:08.260Z,60.40
2022-11-07T22:47:27.091Z,60.30
2022-11-07T22:49:53.866Z,60.80
2022-11-07T22:52:22.594Z,60.70
2022-11-07T22:54:50.084Z,60.80
2022-11-07T22:57:18.268Z,61.00
2022-11-07T23:04:43.178Z,60.50
2022-11-07T23:09:41.004Z,61.10
2022-11-07T23:12:08.066Z,60.80
2022-11-07T23:14:35.994Z,60.90
2022-11-07T23:17:03.438Z,60.80
2022-11-07T23:19:31.272Z,59.50
2022-11-07T23:21:59.271Z,60.60
2022-11-07T23:24:26.952Z,60.90
2022-11-07T23:26:53.750Z,60.80
2022-11-07T23:29:23.040Z,61.00
2022-11-07T23:31:50.816Z,60.70
2022-11-07T23:34:18.555Z,60.70
2022-11-07T23:36:45.817Z,60.80
2022-11-07T23:44:09.654Z,58.90
2022-11-07T23:49:54.614Z,60.90
2022-11-07T23:52:21.779Z,60.50
2022-11-07T23:55:08.100Z,60.70
2022-11-07T23:57:55.855Z,60.60
